Time;durP1;ratioP1;P1;durP2;ratioP2;P2;SDS_P1;SDS_P2;PMS_P1;PMS_P2;Temp;Humidity;BMP_temperature;BMP_pressure;BME280_temperature;BME280_humidity;BME280_pressure;Samples;Min_cycle;Max_cycle;Signal;HPM_P1;HPM_P2
2022/01/14 00:01:59;;;;;;;1.40;1.30;;;;;;;-2.58;91.13;97831.19;4981364;28;20085;-78
2022/01/14 00:04:30;;;;;;;3.63;1.50;;;;;;;-2.56;90.75;97834.59;4981448;28;20367;-77
2022/01/14 00:07:01;;;;;;;2.55;1.10;;;;;;;-2.48;90.75;97832.84;4980892;28;20047;-77
2022/01/14 00:09:33;;;;;;;1.15;1.05;;;;;;;-2.47;90.36;97839.66;4980839;28;20078;-79
2022/01/14 00:12:12;;;;;;;1.52;1.30;;;;;;;-2.78;90.39;97783.50;4984203;28;20055;-77
2022/01/14 00:14:45;;;;;;;1.35;1.10;;;;;;;-2.49;90.35;97836.28;4982936;28;20050;-78
2022/01/14 00:17:17;;;;;;;1.50;1.20;;;;;;;-2.46;90.27;97841.38;4991050;28;20061;-78
2022/01/14 00:19:48;;;;;;;2.10;1.40;;;;;;;-2.52;90.24;97836.25;4985519;28;20054;-79
2022/01/14 00:22:18;;;;;;;1.30;1.20;;;;;;;-2.47;90.42;97831.97;4986761;28;20058;-79
2022/01/14 00:33:16;;;;;;;2.55;1.52;;;;;;;-2.38;90.38;97855.81;4979767;28;20073;-79
2022/01/14 00:35:47;;;;;;;1.30;1.20;;;;;;;-2.37;90.09;97851.56;4981132;28;20053;-77
2022/01/14 00:38:18;;;;;;;3.50;1.60;;;;;;;-2.34;90.50;97851.56;4981228;28;20082;-77
2022/01/14 00:40:49;;;;;;;3.08;1.58;;;;;;;-2.38;90.29;97860.09;4981535;28;20051;-74
2022/01/14 00:43:22;;;;;;;1.42;1.20;;;;;;;-2.39;90.33;97853.28;4981398;28;20347;-73
2022/01/14 00:45:55;;;;;;;1.15;1.05;;;;;;;-2.40;89.96;97857.56;4980993;28;20339;-78
2022/01/14 00:48:26;;;;;;;2.25;1.23;;;;;;;-2.35;90.18;97859.22;4981585;28;20385;-79
2022/01/14 00:51:00;;;;;;;2.03;1.20;;;;;;;-2.34;89.93;97861.78;4978152;28;20327;-79
2022/01/14 00:53:36;;;;;;;1.50;1.20;;;;;;;-2.31;89.56;97854.09;4979976;28;20059;-75
2022/01/14 00:56:32;;;;;;;1.45;1.20;;;;;;;-2.57;89.44;97817.53;4980765;28;20077;-77
2022/01/14 00:59:16;;;;;;;1.65;1.17;;;;;;;-3.09;89.30;97747.84;4988116;28;20097;-79
2022/01/14 01:01:50;;;;;;;2.20;1.55;;;;;;;-2.33;89.27;97863.47;4979316;28;20279;-78
2022/01/14 01:04:26;;;;;;;2.05;1.40;;;;;;;-2.34;89.26;97866.91;4982551;28;20051;-78
2022/01/14 01:07:23;;;;;;;4.07;1.65;;;;;;;-2.34;89.20;97861.78;4984714;28;20058;-78
2022/01/14 01:10:18;;;;;;;4.40;1.50;;;;;;;-2.36;89.15;97862.66;4966468;28;20049;-79
2022/01/14 01:12:52;;;;;;;4.03;1.70;;;;;;;-2.42;89.02;97848.16;4986511;28;20061;-78
2022/01/14 01:15:25;;;;;;;5.47;2.55;;;;;;;-2.42;88.94;97850.72;4982598;28;20109;-78
2022/01/14 01:17:56;;;;;;;4.28;2.17;;;;;;;-2.40;88.83;97846.44;4985128;28;20343;-78
2022/01/14 01:20:27;;;;;;;3.17;1.40;;;;;;;-2.42;88.84;97845.59;4982206;28;20054;-79
2022/01/14 01:22:58;;;;;;;4.00;1.45;;;;;;;-2.46;88.54;97841.38;4980953;28;20057;-79
2022/01/14 01:25:36;;;;;;;4.45;1.40;;;;;;;-2.62;88.62;97826.09;4981062;28;20046;-79
2022/01/14 01:28:07;;;;;;;4.68;1.73;;;;;;;-2.44;88.78;97855.00;4980984;28;20055;-79
2022/01/14 01:30:51;;;;;;;4.53;1.20;;;;;;;-2.43;88.59;97852.44;4980938;28;20061;-79
2022/01/14 01:33:22;;;;;;;2.67;1.20;;;;;;;-2.47;88.51;97835.41;4979863;28;20062;-80
2022/01/14 01:35:53;;;;;;;2.95;1.20;;;;;;;-2.34;88.59;97841.34;4980314;28;20094;-79
2022/01/14 01:38:24;;;;;;;1.27;1.17;;;;;;;-2.28;88.74;97848.97;4979083;28;20047;-79
2022/01/14 01:40:58;;;;;;;5.65;1.40;;;;;;;-2.46;88.82;97810.69;4980452;28;20113;-79
2022/01/14 01:43:31;;;;;;;1.85;1.08;;;;;;;-2.23;88.49;97844.69;4983900;28;20315;-79
2022/01/14 01:46:03;;;;;;;1.67;1.20;;;;;;;-2.24;88.29;97832.75;4980628;28;20058;-81
2022/01/14 01:48:34;;;;;;;2.40;1.25;;;;;;;-2.24;88.40;97837.88;4983801;28;20074;-81
2022/01/14 01:51:06;;;;;;;1.67;1.40;;;;;;;-2.24;88.44;97848.09;4983483;28;20118;-79
2022/01/14 01:53:37;;;;;;;2.25;1.10;;;;;;;-2.25;88.13;97841.28;4983451;28;20082;-79
2022/01/14 01:56:08;;;;;;;1.73;1.33;;;;;;;-2.25;88.59;97841.28;4983874;28;20064;-78
2022/01/14 01:58:39;;;;;;;1.15;1.02;;;;;;;-2.32;88.18;97842.19;4983888;28;20129;-79
2022/01/14 02:01:11;;;;;;;1.85;1.02;;;;;;;-2.26;88.53;97846.41;4983317;28;20050;-78
2022/01/14 02:03:43;;;;;;;3.42;1.15;;;;;;;-2.50;88.50;97808.97;4984248;28;20043;-79
2022/01/14 02:06:14;;;;;;;1.10;1.02;;;;;;;-2.28;88.72;97851.53;4983617;28;20050;-79
2022/01/14 02:08:44;;;;;;;2.20;1.25;;;;;;;-2.20;88.73;97852.38;4983692;28;20096;-78
2022/01/14 02:11:15;;;;;;;1.63;1.15;;;;;;;-2.22;88.54;97854.06;4983936;28;20050;-78
2022/01/14 02:13:49;;;;;;;1.15;1.00;;;;;;;-2.20;88.49;97859.16;4983779;28;20057;-79
2022/01/14 02:16:32;;;;;;;1.10;1.00;;;;;;;-2.26;88.21;97834.47;4983629;28;20043;-77
2022/01/14 02:19:17;;;;;;;2.00;1.20;;;;;;;-1.97;87.65;97861.66;4983437;28;20078;-78
2022/01/14 02:22:12;;;;;;;2.78;1.10;;;;;;;-1.96;87.51;97840.28;4983515;28;20053;-78
2022/01/14 02:25:03;;;;;;;2.17;1.00;;;;;;;-2.00;87.19;97846.28;4977981;28;20049;-77
2022/01/14 02:27:37;;;;;;;2.30;1.10;;;;;;;-2.09;87.76;97841.22;4983367;28;20050;-77
2022/01/14 02:30:09;;;;;;;3.65;1.40;;;;;;;-2.20;87.63;97829.34;4981706;28;20054;-77
2022/01/14 02:32:40;;;;;;;1.67;1.20;;;;;;;-2.10;88.12;97844.63;4983221;28;20101;-78
2022/01/14 02:35:11;;;;;;;1.92;1.17;;;;;;;-2.06;87.77;97851.44;4983203;28;20046;-79
2022/01/14 02:37:47;;;;;;;1.38;1.20;;;;;;;-2.15;88.10;97841.25;4989570;28;20054;-79
2022/01/14 02:40:17;;;;;;;1.58;1.20;;;;;;;-1.96;87.71;97858.22;4983076;28;20117;-78
2022/01/14 02:42:49;;;;;;;1.20;1.10;;;;;;;-1.93;87.63;97853.06;4981254;28;20125;-78
2022/01/14 02:45:27;;;;;;;1.00;1.00;;;;;;;-2.23;87.67;97813.97;4946835;28;20053;-81
2022/01/14 02:47:58;;;;;;;2.63;1.20;;;;;;;-2.50;87.47;97757.84;4982024;28;20113;-80
2022/01/14 02:54:30;;;;;;;3.85;1.30;;;;;;;-1.79;86.97;97861.53;4962477;28;20038;-84
2022/01/14 02:57:18;;;;;;;2.15;1.15;;;;;;;-1.96;87.37;97853.09;4976026;28;20062;-82
2022/01/14 02:59:50;;;;;;;1.15;1.08;;;;;;;-2.09;87.29;97856.59;4982104;28;22613;-79
2022/01/14 03:02:22;;;;;;;1.83;1.20;;;;;;;-2.11;87.66;97845.50;4982632;28;20047;-79
2022/01/14 03:04:54;;;;;;;3.13;1.95;;;;;;;-2.08;88.17;97848.03;4982605;28;20055;-79
2022/01/14 03:07:24;;;;;;;3.05;1.40;;;;;;;-1.98;87.34;97853.09;4982664;28;20231;-81
2022/01/14 03:09:57;;;;;;;2.00;1.30;;;;;;;-1.85;86.95;97851.31;4982509;28;20249;-77
2022/01/14 03:12:28;;;;;;;4.10;1.20;;;;;;;-1.77;87.01;97849.59;4982484;28;20075;-80
2022/01/14 03:14:59;;;;;;;2.88;1.25;;;;;;;-1.73;86.42;97846.13;4972938;28;20055;-80
2022/01/14 03:17:30;;;;;;;2.85;1.23;;;;;;;-1.84;86.53;97853.03;4977430;28;20043;-80
2022/01/14 03:20:02;;;;;;;2.88;1.10;;;;;;;-2.06;86.85;97836.94;4981179;28;20054;-80
2022/01/14 03:22:35;;;;;;;2.28;1.52;;;;;;;-1.95;87.35;97844.53;4982386;28;20042;-79
2022/01/14 03:27:57;;;;;;;2.30;1.23;;;;;;;-1.98;87.26;97844.56;4982228;28;20059;-80
2022/01/14 03:30:28;;;;;;;1.88;1.20;;;;;;;-2.00;88.01;97851.41;4980924;28;20389;-80
2022/01/14 03:32:58;;;;;;;3.20;1.30;;;;;;;-2.09;88.02;97843.78;4981633;28;20089;-80
2022/01/14 03:35:29;;;;;;;3.75;1.20;;;;;;;-2.10;87.97;97850.59;4982347;28;20059;-80
2022/01/14 03:38:00;;;;;;;2.05;1.25;;;;;;;-2.20;88.46;97854.91;4982187;28;20047;-79
2022/01/14 03:40:32;;;;;;;1.80;1.27;;;;;;;-2.15;88.96;97856.59;4981716;28;20105;-80
2022/01/14 03:43:03;;;;;;;1.92;1.13;;;;;;;-2.13;88.82;97860.00;4982165;28;20053;-79
2022/01/14 03:45:34;;;;;;;3.22;0.93;;;;;;;-2.14;88.38;97860.88;4989066;28;20121;-79
2022/01/14 03:48:06;;;;;;;1.65;1.23;;;;;;;-2.20;88.76;97856.59;4990492;28;20046;-81
2022/01/14 03:50:37;;;;;;;1.80;1.20;;;;;;;-2.22;89.16;97856.63;4981701;28;20302;-79
2022/01/14 03:53:08;;;;;;;2.58;1.08;;;;;;;-2.14;89.15;97859.16;4981820;28;20059;-79
2022/01/14 03:55:43;;;;;;;2.50;1.48;;;;;;;-2.21;88.94;97848.09;4981617;28;20158;-78
2022/01/14 03:58:34;;;;;;;1.23;0.98;;;;;;;-2.20;88.74;97865.16;4981636;28;20116;-79
2022/01/14 04:01:06;;;;;;;2.97;1.55;;;;;;;-2.30;88.88;97873.69;4979927;28;20130;-79
2022/01/14 04:03:37;;;;;;;1.30;1.00;;;;;;;-2.34;89.18;97882.25;4981397;28;20651;-79
2022/01/14 04:06:10;;;;;;;2.38;1.15;;;;;;;-2.30;89.44;97886.47;4980506;28;20051;-79
2022/01/14 04:08:42;;;;;;;2.42;1.20;;;;;;;-2.15;88.99;97887.28;4981701;28;20109;-80
2022/01/14 04:11:18;;;;;;;2.88;1.20;;;;;;;-2.09;88.61;97894.97;4981300;28;20331;-82
2022/01/14 04:13:51;;;;;;;2.33;1.33;;;;;;;-2.06;88.06;97882.16;4972972;28;20327;-79
2022/01/14 04:16:24;;;;;;;2.92;1.20;;;;;;;-1.96;88.20;97894.03;4974820;28;20235;-82
2022/01/14 04:18:55;;;;;;;3.05;1.45;;;;;;;-1.93;87.56;97904.25;4980847;28;20518;-82
2022/01/14 04:21:26;;;;;;;1.88;1.25;;;;;;;-1.91;87.65;97905.09;4980877;28;20314;-80
2022/01/14 04:23:57;;;;;;;1.83;1.17;;;;;;;-2.00;87.86;97897.47;4981365;28;20113;-82
2022/01/14 04:26:29;;;;;;;1.77;1.08;;;;;;;-2.00;87.87;97912.81;4981144;28;20051;-79
2022/01/14 04:29:01;;;;;;;3.15;1.30;;;;;;;-2.05;87.86;97919.66;4981365;28;20061;-80
2022/01/14 04:31:32;;;;;;;4.15;1.30;;;;;;;-2.10;87.97;97921.38;4980559;28;20350;-78
2022/01/14 04:34:03;;;;;;;2.20;0.98;;;;;;;-2.20;88.39;97916.31;4979764;28;20054;-80
2022/01/14 04:36:34;;;;;;;2.42;1.05;;;;;;;-2.19;88.10;97938.47;4981428;28;20085;-79
2022/01/14 04:39:06;;;;;;;1.23;0.90;;;;;;;-2.43;88.31;97897.63;4976582;28;20227;-79
2022/01/14 04:41:38;;;;;;;1.73;1.10;;;;;;;-2.18;88.27;97939.31;4981258;28;20078;-79
2022/01/14 04:44:09;;;;;;;2.00;1.02;;;;;;;-2.19;88.00;97937.63;4981148;28;20043;-79
2022/01/14 04:49:28;;;;;;;0.80;0.80;;;;;;;-2.32;88.01;97916.34;4974306;28;20117;-79
2022/01/14 04:52:03;;;;;;;2.00;1.20;;;;;;;-2.13;88.15;97957.22;4981404;28;20055;-79
2022/01/14 04:54:34;;;;;;;2.10;1.02;;;;;;;-2.28;88.33;97928.25;4981349;28;20238;-78
2022/01/14 04:57:06;;;;;;;1.65;1.10;;;;;;;-2.05;88.28;97951.22;4977487;28;20051;-79
2022/01/14 04:59:37;;;;;;;2.80;1.13;;;;;;;-2.02;87.58;97950.34;4981180;28;20130;-80
2022/01/14 05:02:08;;;;;;;3.03;1.10;;;;;;;-2.00;87.42;97948.66;4986309;28;20055;-79
2022/01/14 05:04:40;;;;;;;2.42;1.65;;;;;;;-2.00;87.66;97951.19;4988427;28;20134;-79
2022/01/14 05:07:15;;;;;;;1.52;1.20;;;;;;;-2.22;87.42;97933.38;4986250;28;20234;-79
2022/01/14 05:09:56;;;;;;;2.35;1.10;;;;;;;-2.12;87.35;97953.78;4981216;28;20057;-80
2022/01/14 05:12:28;;;;;;;4.25;1.38;;;;;;;-2.24;87.67;97940.19;4984886;28;20090;-79
2022/01/14 05:14:59;;;;;;;2.65;1.30;;;;;;;-2.15;87.62;97969.16;4989505;28;20062;-80
2022/01/14 05:17:31;;;;;;;3.15;1.13;;;;;;;-2.00;87.64;97989.59;4989472;28;20450;-80
2022/01/14 05:20:02;;;;;;;4.97;1.40;;;;;;;-2.14;87.49;97968.31;4988981;28;20082;-81
2022/01/14 05:22:33;;;;;;;4.47;1.20;;;;;;;-1.98;87.47;98001.53;4993712;28;20058;-80
2022/01/14 05:25:05;;;;;;;2.40;1.20;;;;;;;-2.20;87.00;97972.59;4990429;28;20050;-79
2022/01/14 05:27:38;;;;;;;2.10;1.27;;;;;;;-1.99;87.09;98004.09;4993237;28;20086;-78
2022/01/14 05:30:12;;;;;;;3.25;1.40;;;;;;;-1.95;86.50;98023.69;4993493;28;20085;-80
2022/01/14 05:32:47;;;;;;;2.70;1.60;;;;;;;-1.98;86.74;98029.69;4990017;28;20105;-82
2022/01/14 05:35:20;;;;;;;2.00;1.10;;;;;;;-1.97;86.85;98030.56;4993585;28;20334;-81
2022/01/14 05:37:52;;;;;;;3.67;1.40;;;;;;;-1.96;86.80;98050.16;4992420;28;20117;-83
2022/01/14 05:40:25;;;;;;;4.80;1.70;;;;;;;-2.88;87.22;97924.94;4994121;28;20405;-84
2022/01/14 05:42:59;;;;;;;5.72;1.52;;;;;;;-1.96;87.26;98062.97;4990637;28;20058;-81
2022/01/14 05:45:31;;;;;;;1.95;1.40;;;;;;;-1.99;87.13;98052.72;4992228;28;20050;-83
2022/01/14 05:48:02;;;;;;;9.27;1.77;;;;;;;-1.95;87.53;98064.66;4992568;28;20322;-81
2022/01/14 05:50:33;;;;;;;1.65;1.25;;;;;;;-2.20;86.76;98036.56;4994874;28;20085;-82
2022/01/14 05:53:06;;;;;;;4.35;1.27;;;;;;;-2.02;86.58;98032.25;4991471;28;20054;-82
2022/01/14 05:55:37;;;;;;;4.03;1.20;;;;;;;-1.89;86.66;98084.28;4992767;28;20270;-83
2022/01/14 05:58:10;;;;;;;2.97;1.70;;;;;;;-1.89;86.52;98087.69;4990510;28;20053;-83
2022/01/14 06:00:42;;;;;;;7.28;1.95;;;;;;;-1.93;86.29;98093.66;4984263;28;20089;-84
2022/01/14 06:03:13;;;;;;;3.17;1.17;;;;;;;-1.97;85.88;98089.41;4984148;28;20066;-83
2022/01/14 06:05:44;;;;;;;2.92;1.55;;;;;;;-1.93;85.85;98118.41;4983783;28;20121;-84
2022/01/14 06:08:15;;;;;;;6.00;1.50;;;;;;;-1.95;85.47;98115.84;4964703;28;20126;-83
2022/01/14 06:10:46;;;;;;;3.28;1.48;;;;;;;-1.92;85.73;98120.97;4985783;28;20331;-83
2022/01/14 06:13:21;;;;;;;1.90;1.70;;;;;;;-1.90;85.68;98124.38;4984012;28;20051;-83
2022/01/14 06:15:53;;;;;;;4.85;1.58;;;;;;;-2.16;85.31;98111.59;4983692;28;20050;-84
2022/01/14 06:18:24;;;;;;;4.80;1.45;;;;;;;-1.92;85.16;98141.44;4983890;28;20054;-84
2022/01/14 06:20:55;;;;;;;2.88;1.67;;;;;;;-1.89;85.22;98146.56;4983801;28;20047;-85
2022/01/14 06:23:25;;;;;;;5.35;1.40;;;;;;;-1.90;84.83;98149.97;4983533;28;20058;-85
2022/01/14 06:26:16;;;;;;;1.20;0.98;;;;;;;-1.91;85.05;98163.63;4988591;28;20351;-83
2022/01/14 06:28:49;;;;;;;8.35;1.60;;;;;;;-1.91;84.88;98160.22;4982795;28;20051;-83
2022/01/14 06:31:20;;;;;;;3.33;1.73;;;;;;;-1.91;84.84;98158.50;4983000;28;20062;-85
2022/01/14 06:33:51;;;;;;;5.90;1.55;;;;;;;-1.97;85.10;98161.06;4985018;28;20056;-81
2022/01/14 06:36:22;;;;;;;4.90;1.40;;;;;;;-1.89;84.82;98182.41;4994961;28;20096;-81
2022/01/14 06:38:54;;;;;;;3.90;1.40;;;;;;;-1.99;84.78;98165.34;4995444;28;20088;-83
2022/01/14 06:41:26;;;;;;;2.22;1.38;;;;;;;-1.94;84.61;98183.25;4991979;28;20054;-84
2022/01/14 06:43:59;;;;;;;3.65;1.33;;;;;;;-1.99;84.67;98181.53;4985014;28;20121;-82
2022/01/14 06:46:32;;;;;;;3.05;1.42;;;;;;;-1.89;84.18;98220.78;4983652;28;20081;-80
2022/01/14 06:49:04;;;;;;;3.67;1.60;;;;;;;-1.87;84.35;98216.53;4982924;28;20050;-84
2022/01/14 06:51:35;;;;;;;2.58;1.15;;;;;;;-2.05;83.97;98201.16;4987161;28;20109;-84
2022/01/14 06:54:06;;;;;;;1.83;1.10;;;;;;;-1.88;83.72;98235.28;4983197;28;20074;-83
2022/01/14 06:56:38;;;;;;;3.25;1.42;;;;;;;-1.89;83.12;98225.91;4982914;28;20058;-84
2022/01/14 06:59:16;;;;;;;1.88;1.33;;;;;;;-2.66;83.52;98126.03;4980705;28;20347;-83
2022/01/14 07:01:47;;;;;;;4.60;1.20;;;;;;;-1.89;83.60;98243.00;4982654;28;20089;-83
2022/01/14 07:04:18;;;;;;;1.60;1.20;;;;;;;-1.90;83.75;98247.22;4982376;28;20057;-84
2022/01/14 07:06:49;;;;;;;2.65;1.30;;;;;;;-1.94;83.83;98242.97;4982602;28;20398;-85
2022/01/14 07:09:20;;;;;;;2.38;1.20;;;;;;;-1.91;83.75;98250.66;4982733;28;20084;-84
2022/01/14 07:11:57;;;;;;;6.97;2.28;;;;;;;-1.93;83.74;98257.47;4985106;28;20053;-85
2022/01/14 07:14:29;;;;;;;4.03;1.30;;;;;;;-2.08;84.13;98247.22;4990130;28;20121;-85
2022/01/14 07:17:00;;;;;;;2.78;1.30;;;;;;;-1.95;84.43;98259.16;4988416;28;20058;-85
2022/01/14 07:19:31;;;;;;;1.38;1.08;;;;;;;-1.97;84.25;98273.69;4990117;28;20069;-84
2022/01/14 07:22:03;;;;;;;5.90;1.48;;;;;;;-1.99;84.51;98277.94;4982415;28;20058;-84
2022/01/14 07:24:34;;;;;;;1.90;1.30;;;;;;;-1.99;84.56;98277.94;4982707;28;20043;-84
2022/01/14 07:27:05;;;;;;;2.25;1.02;;;;;;;-2.08;84.91;98263.41;4982401;28;20049;-84
2022/01/14 07:29:38;;;;;;;6.95;1.35;;;;;;;-1.98;84.87;98289.88;4982421;28;20425;-84
2022/01/14 07:32:10;;;;;;;1.58;0.85;;;;;;;-2.00;85.08;98291.56;4982197;28;20082;-84
2022/01/14 07:34:41;;;;;;;3.55;1.23;;;;;;;-2.06;85.13;98283.91;4975108;28;20043;-83
2022/01/14 07:37:12;;;;;;;1.73;1.00;;;;;;;-2.04;85.25;98297.56;4982653;28;20385;-84
2022/01/14 07:39:44;;;;;;;1.70;1.10;;;;;;;-2.33;84.95;98262.50;4981226;28;20378;-85
2022/01/14 07:42:15;;;;;;;1.67;0.90;;;;;;;-2.08;85.21;98313.75;4982444;28;20338;-85
2022/01/14 07:44:48;;;;;;;1.52;1.30;;;;;;;-2.10;85.29;98320.56;4994983;28;20050;-86
2022/01/14 07:47:21;;;;;;;2.03;1.27;;;;;;;-2.10;85.14;98315.44;4984264;28;20072;-85
2022/01/14 07:49:54;;;;;;;1.63;1.10;;;;;;;-2.11;85.54;98316.31;4986981;28;20081;-87
2022/01/14 07:52:26;;;;;;;3.40;1.20;;;;;;;-2.13;85.10;98341.88;4964549;28;20114;-87
2022/01/14 07:54:57;;;;;;;4.25;1.50;;;;;;;-2.12;85.57;98333.38;4982106;28;20118;-85
2022/01/14 07:57:28;;;;;;;2.72;1.30;;;;;;;-2.14;85.78;98347.00;4981812;28;20105;-85
2022/01/14 08:00:04;;;;;;;2.63;1.10;;;;;;;-2.17;86.25;98350.41;4982512;28;20496;-84
2022/01/14 08:02:37;;;;;;;3.65;1.40;;;;;;;-2.21;87.17;98343.56;4982011;28;20057;-86
2022/01/14 08:05:09;;;;;;;2.75;1.50;;;;;;;-2.25;87.57;98352.91;4979848;28;20101;-85
2022/01/14 08:07:45;;;;;;;3.22;1.60;;;;;;;-2.25;87.41;98352.91;4980122;28;20043;-88
2022/01/14 08:10:17;;;;;;;4.05;1.90;;;;;;;-2.25;88.17;98354.63;4977354;28;20479;-88
2022/01/14 08:12:51;;;;;;;6.47;1.52;;;;;;;-2.28;89.28;98368.25;4980279;28;20134;-86
2022/01/14 08:15:30;;;;;;;5.43;1.45;;;;;;;-2.28;89.39;98362.28;4981298;28;20065;-89
2022/01/14 08:18:06;;;;;;;2.33;1.30;;;;;;;-3.29;89.84;98224.59;4985013;28;20081;-89
2022/01/14 08:20:50;;;;;;;;;;;;;;;;;;;;;
2022/01/14 08:24:07;;;;;;;1.80;1.30;;;;;;;-3.21;90.08;98268.91;4962199;29;20349;-89
2022/01/14 08:26:47;;;;;;;4.30;1.55;;;;;;;-3.61;90.01;98207.34;4959917;28;20051;-87
2022/01/14 08:29:19;;;;;;;4.00;1.13;;;;;;;-3.08;90.11;98286.00;4960685;28;20043;-91
2022/01/14 08:32:00;;;;;;;2.47;1.17;;;;;;;-2.91;90.27;98339.78;4960366;28;20073;-91
2022/01/14 08:38:16;;;;;;;3.17;1.40;;;;;;;-3.14;90.93;98300.47;4921156;28;20066;-90
2022/01/14 08:40:50;;;;;;;4.88;1.45;;;;;;;-2.48;91.10;98405.66;4959823;28;20051;-90
2022/01/14 08:43:24;;;;;;;4.68;1.70;;;;;;;-2.79;91.52;98351.81;4960167;28;20054;-90
2022/01/14 08:46:08;;;;;;;;;;;;;;;;;;;;;
2022/01/14 08:48:52;;;;;;;2.03;1.08;;;;;;;-2.73;91.12;98374.81;4979908;28;20083;-91
2022/01/14 08:51:23;;;;;;;4.97;1.30;;;;;;;-2.48;91.46;98426.13;4983859;28;20370;-90
2022/01/14 08:53:55;;;;;;;2.25;1.30;;;;;;;-2.49;91.17;98424.44;4985910;28;20054;-90
2022/01/14 08:56:27;;;;;;;4.93;1.60;;;;;;;-2.50;90.44;98427.81;4977217;28;20051;-89
2022/01/14 08:59:00;;;;;;;2.03;1.20;;;;;;;-2.67;90.39;98400.44;4984494;28;20386;-89
2022/01/14 09:13:13;;;;;;;;;;;;;;;;;;;;;
2022/01/14 09:15:56;;;;;;;3.88;1.35;;;;;;;-2.46;89.20;98470.47;4885381;29;20313;-90
2022/01/14 09:18:56;;;;;;;4.25;1.20;;;;;;;-2.81;88.85;98422.50;4897189;29;20049;-90
2022/01/14 09:21:45;;;;;;;2.78;1.15;;;;;;;-2.94;88.57;98420.69;4934647;28;20054;-89
2022/01/14 09:24:35;;;;;;;1.23;1.13;;;;;;;-3.05;88.64;98393.34;4983071;28;20050;-88
2022/01/14 09:27:09;;;;;;;2.80;1.10;;;;;;;-2.48;88.97;98483.25;4983124;28;20105;-92
2022/01/14 09:29:40;;;;;;;2.20;1.17;;;;;;;-2.52;89.67;98485.75;4985571;28;20246;-90
2022/01/14 09:32:11;;;;;;;2.03;1.20;;;;;;;-2.57;89.86;98502.78;4985355;28;20077;-90
2022/01/14 09:34:45;;;;;;;2.55;1.45;;;;;;;-2.62;90.63;98495.94;4984609;28;20057;-88
2022/01/14 09:38:09;;;;;;;5.28;1.50;;;;;;;-3.08;91.24;98426.53;4980540;28;20261;-88
2022/01/14 09:40:57;;;;;;;2.35;1.40;;;;;;;-3.79;91.08;98345.03;4981987;28;20066;-89
2022/01/14 09:44:13;;;;;;;2.08;1.30;;;;;;;-3.78;91.42;98346.72;4966340;28;20058;-90
2022/01/14 09:47:02;;;;;;;2.25;1.45;;;;;;;-2.74;92.12;98497.53;4979629;28;20050;-91
2022/01/14 09:49:38;;;;;;;1.42;1.15;;;;;;;-3.30;92.11;98416.97;4986945;28;20042;-94
2022/01/14 09:52:13;;;;;;;1.63;0.90;;;;;;;-2.72;92.03;98514.59;4979032;28;20057;-93
2022/01/14 09:54:47;;;;;;;1.95;0.90;;;;;;;-2.71;91.99;98521.41;4983475;28;20069;-83
2022/01/14 09:57:19;;;;;;;3.17;1.23;;;;;;;-2.94;91.94;98487.16;4985309;28;20070;-88
2022/01/14 09:59:51;;;;;;;1.02;1.00;;;;;;;-2.71;91.72;98541.88;4983543;28;20480;-93
2022/01/14 10:02:33;;;;;;;1.90;1.05;;;;;;;-2.72;91.71;98529.94;4983526;28;20055;-86
2022/01/14 10:05:05;;;;;;;1.27;1.10;;;;;;;-2.70;91.41;98538.47;4978433;28;20354;-88
2022/01/14 10:07:40;;;;;;;1.88;1.02;;;;;;;-2.81;91.30;98524.75;4983942;28;20054;-88
2022/01/14 10:10:26;;;;;;;1.92;1.10;;;;;;;-2.75;91.40;98547.78;4984870;28;20043;-84
2022/01/14 10:13:11;;;;;;;1.95;1.00;;;;;;;-2.72;91.05;98550.41;4990973;28;20093;-83
2022/01/14 10:15:46;;;;;;;4.30;1.20;;;;;;;-2.71;90.98;98567.44;4984307;28;20374;-84
2022/01/14 10:18:18;;;;;;;1.13;0.93;;;;;;;-2.92;90.43;98523.78;4985319;28;20055;-86
2022/01/14 10:20:50;;;;;;;1.00;1.00;;;;;;;-3.17;90.41;98480.13;4994164;28;20254;-86
2022/01/14 10:23:41;;;;;;;0.90;0.90;;;;;;;-2.69;90.42;98570.88;4989013;28;20047;-85
2022/01/14 10:26:14;;;;;;;1.63;1.20;;;;;;;-2.86;89.88;98551.97;4989080;28;20322;-85
2022/01/14 10:28:59;;;;;;;1.65;0.88;;;;;;;-2.68;89.70;98582.81;4988330;28;20054;-86
2022/01/14 10:31:35;;;;;;;1.52;1.10;;;;;;;-2.68;89.71;98587.06;4992817;28;20046;-84
2022/01/14 10:34:13;;;;;;;0.90;0.90;;;;;;;-2.68;89.95;98592.19;4989935;28;20263;-84
2022/01/14 10:36:46;;;;;;;2.10;0.90;;;;;;;-2.72;90.15;98588.75;4992134;28;20042;-87
2022/01/14 10:39:24;;;;;;;3.42;1.20;;;;;;;-2.72;90.16;98604.09;4991363;28;20081;-83
2022/01/14 10:41:58;;;;;;;1.58;1.00;;;;;;;-2.71;90.01;98608.34;4992225;28;20079;-85
2022/01/14 10:44:49;;;;;;;0.82;0.82;;;;;;;-2.72;90.38;98616.00;4989659;28;20058;-84
2022/01/14 10:47:22;;;;;;;2.80;1.10;;;;;;;-2.72;90.30;98616.00;4987592;28;20042;-85
2022/01/14 10:49:58;;;;;;;1.77;0.98;;;;;;;-2.71;90.37;98622.84;4989799;28;20054;-85
2022/01/14 10:52:29;;;;;;;2.08;1.00;;;;;;;-2.72;90.05;98637.31;4989933;28;20046;-85
2022/01/14 10:55:01;;;;;;;3.50;1.25;;;;;;;-2.98;90.15;98587.63;4985445;28;20069;-84
2022/01/14 10:57:34;;;;;;;1.80;1.30;;;;;;;-2.77;90.32;98628.75;4983241;28;20046;-85
2022/01/14 11:00:19;;;;;;;0.90;0.85;;;;;;;-2.77;90.37;98643.19;4979249;28;20047;-85
2022/01/14 11:02:49;;;;;;;1.80;1.00;;;;;;;-2.83;90.11;98649.97;4982565;28;20346;-86
2022/01/14 11:05:22;;;;;;;3.13;0.98;;;;;;;-2.87;90.00;98632.03;4982529;28;20078;-85
2022/01/14 11:07:54;;;;;;;0.95;0.95;;;;;;;-2.75;89.65;98657.72;4983319;28;20054;-84
2022/01/14 11:10:27;;;;;;;1.77;1.05;;;;;;;-2.75;89.37;98660.28;4989756;28;20050;-86
2022/01/14 11:13:00;;;;;;;5.88;1.25;;;;;;;-3.01;88.43;98623.38;4983738;28;20117;-84
2022/01/14 11:15:33;;;;;;;1.73;1.10;;;;;;;-2.73;88.01;98661.16;4974976;28;20118;-85
2022/01/14 11:18:07;;;;;;;2.67;1.55;;;;;;;-2.73;87.68;98676.50;4982487;28;20097;-87
2022/01/14 11:23:14;;;;;;;4.80;1.35;;;;;;;-2.75;87.59;98673.06;4978808;28;20084;-86
2022/01/14 11:23:29;;;;;;;9.15;2.00;;;;;;;-2.75;87.10;98678.16;4979726;28;20089;-86
2022/01/14 11:26:04;;;;;;;;;;;;;;;-2.75;87.29;98667.94;4982284;28;20059;-85
2022/01/14 11:28:38;;;;;;;10.40;1.58;;;;;;;-2.85;86.30;98666.13;4946519;28;19932;-87
2022/01/14 11:31:32;;;;;;;4.93;1.60;;;;;;;-2.74;86.37;98679.91;4979736;28;20051;-88
2022/01/14 11:34:05;;;;;;;11.63;2.28;;;;;;;-2.73;86.17;98679.06;4979525;28;20050;-87
2022/01/14 11:36:56;;;;;;;5.95;1.58;;;;;;;-2.73;85.25;98686.72;4986371;28;20608;-89
2022/01/14 11:39:31;;;;;;;8.98;1.95;;;;;;;-2.69;84.87;98691.03;4986112;28;20235;-89
2022/01/14 11:42:04;;;;;;;11.00;2.33;;;;;;;-2.65;84.39;98690.22;4989321;28;20061;-87
2022/01/14 11:45:00;;;;;;;6.60;1.88;;;;;;;-2.63;83.79;98688.53;4987903;28;20050;-86
2022/01/14 11:48:02;;;;;;;6.88;1.60;;;;;;;-2.61;83.25;98694.53;4985186;28;20050;-87
2022/01/14 11:50:52;;;;;;;4.32;1.67;;;;;;;-2.56;82.65;98694.59;4984998;28;20055;-86
2022/01/14 11:53:38;;;;;;;4.03;1.20;;;;;;;-2.90;82.14;98647.31;4987790;28;20585;-86
2022/01/14 11:56:25;;;;;;;7.18;1.65;;;;;;;-2.53;81.74;98696.31;4984222;28;20227;-86
2022/01/14 11:59:35;;;;;;;6.30;1.77;;;;;;;-2.52;81.63;98709.13;4967408;28;20059;-86
2022/01/14 12:02:37;;;;;;;6.05;1.70;;;;;;;-2.82;81.46;98666.19;4980466;28;20114;-86
2022/01/14 12:05:17;;;;;;;3.78;1.75;;;;;;;-2.52;80.96;98705.69;4981222;28;20139;-88
2022/01/14 12:08:24;;;;;;;7.63;2.08;;;;;;;-2.51;80.99;98715.09;4980535;28;20246;-89
2022/01/14 12:11:20;;;;;;;4.30;1.48;;;;;;;-3.00;80.00;98640.41;4980837;28;20097;-88
2022/01/14 12:14:06;;;;;;;8.20;2.33;;;;;;;-2.48;80.24;98727.91;4988579;28;20069;-86
2022/01/14 12:17:00;;;;;;;9.52;2.00;;;;;;;-2.48;80.61;98740.69;4988550;28;20070;-88
2022/01/14 12:19:33;;;;;;;5.85;1.77;;;;;;;-2.47;80.44;98744.97;4984432;28;20051;-89
2022/01/14 12:22:08;;;;;;;11.55;2.22;;;;;;;-2.50;80.23;98734.72;4981841;28;20082;-87
2022/01/14 12:24:51;;;;;;;7.70;2.47;;;;;;;-2.43;80.39;98752.69;4981706;28;20050;-82
2022/01/14 12:27:34;;;;;;;;;;;;;;;-2.44;80.48;98756.09;4980399;28;20275;-81
2022/01/14 12:30:12;;;;;;;7.03;1.75;;;;;;;-2.45;80.27;98768.88;4982059;28;20224;-85
2022/01/14 12:32:46;;;;;;;6.70;1.67;;;;;;;-2.45;80.17;98779.09;4979941;28;20063;-84
2022/01/14 12:35:21;;;;;;;5.20;1.70;;;;;;;-2.47;80.05;98766.31;4981889;28;20106;-83
2022/01/14 12:37:57;;;;;;;4.18;1.33;;;;;;;-2.79;79.99;98719.91;4981278;28;20051;-85
2022/01/14 12:40:38;;;;;;;4.07;1.70;;;;;;;-3.32;79.66;98664.72;4983529;28;20708;-85
2022/01/14 12:43:16;;;;;;;5.43;1.92;;;;;;;-3.31;79.49;98660.47;4983540;28;20126;-82
2022/01/14 12:46:12;;;;;;;2.05;1.23;;;;;;;-2.64;79.55;98760.97;4981341;28;20085;-84
2022/01/14 12:48:55;;;;;;;5.15;1.58;;;;;;;-2.83;79.26;98741.13;4980786;28;20111;-83
2022/01/14 12:51:29;;;;;;;5.07;1.73;;;;;;;-2.51;79.15;98794.38;4983941;28;20051;-81